Cala Progreso — V2BC5 — position and weather

sailwx.info

Track history (hours):
 
Tides and Currents Weather Stations Pressure Air Temp Water Temp Dewpoint Dewpoint Depression Visibility Wind Speed Wind Dir Waves Ship Positions

Cala Progreso

Last reported at 2017-Nov-24 08:58 UTC. Time now 2017-Nov-24 09:22 UTC.
Position N 37°53' E 023°33'.

Length 153.6 m; beam 25.3 m; draft 10.1 m.

Type: Ship (hazmat cat B). MMSI: 304491000.

Date/timePositionNaut miles runAvg speedWind from/ knotsBaromVisibWave heightAir tempDewpointWater temp
2017-Nov-24 08:58N 37°53' E 023°33'0 0.1
2017-Nov-24 08:28N 37°53' E 023°33'0 0.0
2017-Nov-24 07:58N 37°53' E 023°33'0 0.0
2017-Nov-24 07:28N 37°53' E 023°33'0 0.0
2017-Nov-24 06:58N 37°53' E 023°33'0 0.0
2017-Nov-24 06:28N 37°53' E 023°33'0 0.0
2017-Nov-24 05:58N 37°53' E 023°33'0 0.1
2017-Nov-24 05:30N 37°53' E 023°33'4 7.7
2017-Nov-24 05:00N 37°51' E 023°37'611.6
2017-Nov-24 04:30N 37°47' E 023°42'714.2
2017-Nov-24 04:00N 37°40' E 023°45'816.1
2017-Nov-24 03:30N 37°36' E 023°54'816.3
2017-Nov-24 03:00N 37°34' E 024°04'816.0
2017-Nov-24 02:30N 37°40' E 024°10'1016.3
2017-Nov-24 01:54N 37°47' E 024°19'716.4
2017-Nov-24 01:30N 37°51' E 024°26'815.9
2017-Nov-24 01:00N 37°55' E 024°34'816.3
2017-Nov-24 00:30N 38°03' E 024°38'1516.1
2017-Nov-23 23:35N 38°16' E 024°46'616.3
2017-Nov-23 23:14N 38°22' E 024°49'716.4
2017-Nov-23 22:46N 38°28' E 024°53'2316.2
2017-Nov-23 21:21N 38°49' E 025°07'516.1
2017-Nov-23 21:00N 38°54' E 025°10'816.1
2017-Nov-23 20:30N 39°01' E 025°15'2716.4
2017-Nov-23 18:53N 39°25' E 025°30'  
2017-Nov-19 00:56N 37°08' E 023°50'65214.5
2017-Nov-17 03:50N 44°22' E 013°07'616.8
2017-Nov-17 03:29N 44°28' E 013°05'1216.5
2017-Nov-17 02:47N 44°39' E 013°00'516.5
2017-Nov-17 02:30N 44°43' E 012°58'816.6
2017-Nov-17 02:01N 44°51' E 012°53'917.0
2017-Nov-17 01:30N 44°58' E 012°47'817.1
2017-Nov-17 01:01N 45°06' E 012°42'816.5
2017-Nov-17 00:30N 45°10' E 012°32'815.1
2017-Nov-17 00:00N 45°17' E 012°26'612.7
2017-Nov-16 23:30N 45°20' E 012°19'4 8.4
2017-Nov-16 23:00N 45°24' E 012°16'4 7.1
2017-Nov-16 22:30N 45°27' E 012°15'0 0.0
2017-Nov-16 21:58N 45°27' E 012°15'0 0.0
2017-Nov-16 21:28N 45°27' E 012°15'0 0.0
2017-Nov-16 20:58N 45°27' E 012°15'0 0.0
2017-Nov-16 20:28N 45°27' E 012°15'0 0.0
2017-Nov-16 19:58N 45°27' E 012°15'0 0.0
2017-Nov-16 19:28N 45°27' E 012°15'0 0.0
2017-Nov-16 18:58N 45°27' E 012°15'0 0.0
2017-Nov-16 18:28N 45°27' E 012°15'0 0.0
2017-Nov-16 17:58N 45°27' E 012°15'0 0.0
2017-Nov-16 17:28N 45°27' E 012°15'0 0.0
2017-Nov-16 16:58N 45°27' E 012°15'0 0.0
2017-Nov-16 16:28N 45°27' E 012°15'0 0.0
2017-Nov-16 15:58N 45°27' E 012°15'0 0.0
2017-Nov-16 15:28N 45°27' E 012°15'0 0.0
2017-Nov-16 14:58N 45°27' E 012°15'0 0.0
2017-Nov-16 14:28N 45°27' E 012°15'0 0.0
2017-Nov-16 13:58N 45°27' E 012°15'0 0.0
2017-Nov-16 13:28N 45°27' E 012°15'0 0.0
2017-Nov-16 12:58N 45°27' E 012°15'0 0.0
2017-Nov-16 12:28N 45°27' E 012°15'0 0.0
2017-Nov-16 11:58N 45°27' E 012°15'0 0.0
2017-Nov-16 11:28N 45°27' E 012°15'0 0.0
2017-Nov-16 10:58N 45°27' E 012°15'0 0.0
2017-Nov-16 10:28N 45°27' E 012°15'0 0.0
2017-Nov-16 09:58N 45°27' E 012°15'0 0.0
2017-Nov-16 09:28N 45°27' E 012°15'0 0.0
2017-Nov-16 08:58N 45°27' E 012°15'0 0.0
2017-Nov-16 08:28N 45°27' E 012°15'0 0.0
2017-Nov-16 07:58N 45°27' E 012°15'0 0.0
2017-Nov-16 07:28N 45°27' E 012°15'0 0.0
2017-Nov-16 06:58N 45°27' E 012°15'0 0.0
2017-Nov-16 06:28N 45°27' E 012°15'1 3.1
2017-Nov-16 06:00N 45°26' E 012°16'4 8.3
2017-Nov-16 05:29N 45°22' E 012°15'5 9.8
2017-Nov-16 05:00N 45°20' E 012°22'3 5.4
2017-Nov-16 04:31N 45°21' E 012°24'0 0.2
2017-Nov-16 04:00N 45°21' E 012°24'0 0.0
2017-Nov-16 03:30N 45°21' E 012°24'0 0.0
2017-Nov-16 03:00N 45°21' E 012°24'0 0.0
2017-Nov-16 02:30N 45°21' E 012°24'0 0.0
2017-Nov-16 02:00N 45°21' E 012°24'0 0.0
2017-Nov-16 01:30N 45°21' E 012°24'0 0.1
2017-Nov-16 01:01N 45°21' E 012°24'4 7.8
2017-Nov-16 00:31N 45°18' E 012°28'714.2
2017-Nov-16 00:00N 45°15' E 012°36'815.5
2017-Nov-15 23:30N 45°10' E 012°45'815.4
2017-Nov-15 23:00N 45°04' E 012°51'714.8
2017-Nov-15 22:30N 44°56' E 012°53'815.9
2017-Nov-15 22:00N 44°50' E 012°47'815.9
2017-Nov-15 21:30N 44°43' E 012°41'15 0.8
2017-Nov-15 02:05N 44°30' E 012°29'0 0.0
2017-Nov-14 21:53N 44°30' E 012°29'7 1.7
2017-Nov-14 17:29N 44°36' E 012°36'715.3
2017-Nov-14 17:00N 44°42' E 012°41'815.8
2017-Nov-14 16:30N 44°49' E 012°47'815.9
2017-Nov-14 16:00N 44°55' E 012°53'816.0
2017-Nov-14 15:31N 45°02' E 012°58'816.3
2017-Nov-14 15:00N 45°10' E 013°01'816.1
2017-Nov-14 14:31N 45°18' E 013°00'815.7
2017-Nov-14 14:01N 45°26' E 013°02'815.6
2017-Nov-14 13:31N 45°31' E 013°10'816.3
2017-Nov-14 13:00N 45°34' E 013°21'816.0
2017-Nov-14 12:31N 45°37' E 013°32'713.6
2017-Nov-14 12:00N 45°34' E 013°41'3 5.5
2017-Nov-14 11:30N 45°33' E 013°44'0 0.1
2017-Nov-14 10:59N 45°33' E 013°44'0 0.0
2017-Nov-14 10:29N 45°33' E 013°44'0 0.0
2017-Nov-14 09:59N 45°33' E 013°44'0 0.0
2017-Nov-14 09:29N 45°33' E 013°44'  
Track history (hours):
 
Tides and Currents Weather Stations Pressure Air Temp Water Temp Dewpoint Dewpoint Depression Visibility Wind Speed Wind Dir Waves Ship Positions

Cala Progreso

Last reported at 2017-Nov-24 08:58 UTC. Time now 2017-Nov-24 09:22 UTC.
Position N 37°53' E 023°33'.

Length 153.6 m; beam 25.3 m; draft 10.1 m.

Type: Ship (hazmat cat B). MMSI: 304491000.

Date/timePositionNaut miles runAvg speedWind from/ knotsBaromVisibWave heightAir tempDewpointWater temp
2017-Nov-24 08:58N 37°53' E 023°33'0 0.1
2017-Nov-24 08:28N 37°53' E 023°33'0 0.0
2017-Nov-24 07:58N 37°53' E 023°33'0 0.0
2017-Nov-24 07:28N 37°53' E 023°33'0 0.0
2017-Nov-24 06:58N 37°53' E 023°33'0 0.0
2017-Nov-24 06:28N 37°53' E 023°33'0 0.0
2017-Nov-24 05:58N 37°53' E 023°33'0 0.1
2017-Nov-24 05:30N 37°53' E 023°33'4 7.7
2017-Nov-24 05:00N 37°51' E 023°37'611.6
2017-Nov-24 04:30N 37°47' E 023°42'714.2
2017-Nov-24 04:00N 37°40' E 023°45'816.1
2017-Nov-24 03:30N 37°36' E 023°54'816.3
2017-Nov-24 03:00N 37°34' E 024°04'816.0
2017-Nov-24 02:30N 37°40' E 024°10'1016.3
2017-Nov-24 01:54N 37°47' E 024°19'716.4
2017-Nov-24 01:30N 37°51' E 024°26'815.9
2017-Nov-24 01:00N 37°55' E 024°34'816.3
2017-Nov-24 00:30N 38°03' E 024°38'1516.1
2017-Nov-23 23:35N 38°16' E 024°46'616.3
2017-Nov-23 23:14N 38°22' E 024°49'716.4
2017-Nov-23 22:46N 38°28' E 024°53'2316.2
2017-Nov-23 21:21N 38°49' E 025°07'516.1
2017-Nov-23 21:00N 38°54' E 025°10'816.1
2017-Nov-23 20:30N 39°01' E 025°15'2716.4
2017-Nov-23 18:53N 39°25' E 025°30'  
2017-Nov-19 00:56N 37°08' E 023°50'65214.5
2017-Nov-17 03:50N 44°22' E 013°07'616.8
2017-Nov-17 03:29N 44°28' E 013°05'1216.5
2017-Nov-17 02:47N 44°39' E 013°00'516.5
2017-Nov-17 02:30N 44°43' E 012°58'816.6
2017-Nov-17 02:01N 44°51' E 012°53'917.0
2017-Nov-17 01:30N 44°58' E 012°47'817.1
2017-Nov-17 01:01N 45°06' E 012°42'816.5
2017-Nov-17 00:30N 45°10' E 012°32'815.1
2017-Nov-17 00:00N 45°17' E 012°26'612.7
2017-Nov-16 23:30N 45°20' E 012°19'4 8.4
2017-Nov-16 23:00N 45°24' E 012°16'4 7.1
2017-Nov-16 22:30N 45°27' E 012°15'0 0.0
2017-Nov-16 21:58N 45°27' E 012°15'0 0.0
2017-Nov-16 21:28N 45°27' E 012°15'0 0.0
2017-Nov-16 20:58N 45°27' E 012°15'0 0.0
2017-Nov-16 20:28N 45°27' E 012°15'0 0.0
2017-Nov-16 19:58N 45°27' E 012°15'0 0.0
2017-Nov-16 19:28N 45°27' E 012°15'0 0.0
2017-Nov-16 18:58N 45°27' E 012°15'0 0.0
2017-Nov-16 18:28N 45°27' E 012°15'0 0.0
2017-Nov-16 17:58N 45°27' E 012°15'0 0.0
2017-Nov-16 17:28N 45°27' E 012°15'0 0.0
2017-Nov-16 16:58N 45°27' E 012°15'0 0.0
2017-Nov-16 16:28N 45°27' E 012°15'0 0.0
2017-Nov-16 15:58N 45°27' E 012°15'0 0.0
2017-Nov-16 15:28N 45°27' E 012°15'0 0.0
2017-Nov-16 14:58N 45°27' E 012°15'0 0.0
2017-Nov-16 14:28N 45°27' E 012°15'0 0.0
2017-Nov-16 13:58N 45°27' E 012°15'0 0.0
2017-Nov-16 13:28N 45°27' E 012°15'0 0.0
2017-Nov-16 12:58N 45°27' E 012°15'0 0.0
2017-Nov-16 12:28N 45°27' E 012°15'0 0.0
2017-Nov-16 11:58N 45°27' E 012°15'0 0.0
2017-Nov-16 11:28N 45°27' E 012°15'0 0.0
2017-Nov-16 10:58N 45°27' E 012°15'0 0.0
2017-Nov-16 10:28N 45°27' E 012°15'0 0.0
2017-Nov-16 09:58N 45°27' E 012°15'0 0.0
2017-Nov-16 09:28N 45°27' E 012°15'0 0.0
2017-Nov-16 08:58N 45°27' E 012°15'0 0.0
2017-Nov-16 08:28N 45°27' E 012°15'0 0.0
2017-Nov-16 07:58N 45°27' E 012°15'0 0.0
2017-Nov-16 07:28N 45°27' E 012°15'0 0.0
2017-Nov-16 06:58N 45°27' E 012°15'0 0.0
2017-Nov-16 06:28N 45°27' E 012°15'1 3.1
2017-Nov-16 06:00N 45°26' E 012°16'4 8.3
2017-Nov-16 05:29N 45°22' E 012°15'5 9.8
2017-Nov-16 05:00N 45°20' E 012°22'3 5.4
2017-Nov-16 04:31N 45°21' E 012°24'0 0.2
2017-Nov-16 04:00N 45°21' E 012°24'0 0.0
2017-Nov-16 03:30N 45°21' E 012°24'0 0.0
2017-Nov-16 03:00N 45°21' E 012°24'0 0.0
2017-Nov-16 02:30N 45°21' E 012°24'0 0.0
2017-Nov-16 02:00N 45°21' E 012°24'0 0.0
2017-Nov-16 01:30N 45°21' E 012°24'0 0.1
2017-Nov-16 01:01N 45°21' E 012°24'4 7.8
2017-Nov-16 00:31N 45°18' E 012°28'714.2
2017-Nov-16 00:00N 45°15' E 012°36'815.5
2017-Nov-15 23:30N 45°10' E 012°45'815.4
2017-Nov-15 23:00N 45°04' E 012°51'714.8
2017-Nov-15 22:30N 44°56' E 012°53'815.9
2017-Nov-15 22:00N 44°50' E 012°47'815.9
2017-Nov-15 21:30N 44°43' E 012°41'15 0.8
2017-Nov-15 02:05N 44°30' E 012°29'0 0.0
2017-Nov-14 21:53N 44°30' E 012°29'7 1.7
2017-Nov-14 17:29N 44°36' E 012°36'715.3
2017-Nov-14 17:00N 44°42' E 012°41'815.8
2017-Nov-14 16:30N 44°49' E 012°47'815.9
2017-Nov-14 16:00N 44°55' E 012°53'816.0
2017-Nov-14 15:31N 45°02' E 012°58'816.3
2017-Nov-14 15:00N 45°10' E 013°01'816.1
2017-Nov-14 14:31N 45°18' E 013°00'815.7
2017-Nov-14 14:01N 45°26' E 013°02'815.6
2017-Nov-14 13:31N 45°31' E 013°10'816.3
2017-Nov-14 13:00N 45°34' E 013°21'816.0
2017-Nov-14 12:31N 45°37' E 013°32'713.6
2017-Nov-14 12:00N 45°34' E 013°41'3 5.5
2017-Nov-14 11:30N 45°33' E 013°44'0 0.1
2017-Nov-14 10:59N 45°33' E 013°44'0 0.0
2017-Nov-14 10:29N 45°33' E 013°44'0 0.0
2017-Nov-14 09:59N 45°33' E 013°44'0 0.0
2017-Nov-14 09:29N 45°33' E 013°44'  

Dump ship's entire track history